sensor_id;sensor_type;location;lat;lon;timestamp;pressure;altitude;pressure_sealevel;temperature;humidity
32761;BME280;19126;47.472;7.850;2022-09-13T00:00:59;96286.19;;;12.72;51.30
32761;BME280;19126;47.472;7.850;2022-09-13T00:03:27;96277.88;;;12.69;50.07
32761;BME280;19126;47.472;7.850;2022-09-13T00:05:57;96286.19;;;12.72;49.20
32761;BME280;19126;47.472;7.850;2022-09-13T00:08:26;96278.28;;;12.72;48.10
32761;BME280;19126;47.472;7.850;2022-09-13T00:10:53;96282.75;;;12.72;48.68
32761;BME280;19126;47.472;7.850;2022-09-13T00:13:20;96283.53;;;12.72;47.34
32761;BME280;19126;47.472;7.850;2022-09-13T00:15:49;96278.66;;;12.69;46.89
32761;BME280;19126;47.472;7.850;2022-09-13T00:18:17;96287.19;;;12.71;45.29
32761;BME280;19126;47.472;7.850;2022-09-13T00:20:44;96283.53;;;12.66;44.72
32761;BME280;19126;47.472;7.850;2022-09-13T00:23:13;96283.31;;;12.60;45.07
32761;BME280;19126;47.472;7.850;2022-09-13T00:25:40;96293.41;;;12.57;45.94
32761;BME280;19126;47.472;7.850;2022-09-13T00:28:08;96288.13;;;12.57;45.37
32761;BME280;19126;47.472;7.850;2022-09-13T00:30:35;96297.66;;;12.58;43.98
32761;BME280;19126;47.472;7.850;2022-09-13T00:33:02;96290.97;;;12.55;44.06
32761;BME280;19126;47.472;7.850;2022-09-13T00:35:29;96288.97;;;12.57;42.75
32761;BME280;19126;47.472;7.850;2022-09-13T00:37:59;96287.50;;;12.55;42.04
32761;BME280;19126;47.472;7.850;2022-09-13T00:40:28;96292.56;;;12.50;41.46
32761;BME280;19126;47.472;7.850;2022-09-13T00:42:56;96284.66;;;12.50;40.94
32761;BME280;19126;47.472;7.850;2022-09-13T00:45:23;96285.88;;;12.47;40.76
32761;BME280;19126;47.472;7.850;2022-09-13T00:47:54;96286.03;;;12.39;44.73
32761;BME280;19126;47.472;7.850;2022-09-13T00:50:26;96273.66;;;12.39;43.77
32761;BME280;19126;47.472;7.850;2022-09-13T00:53:00;96289.69;;;12.44;42.53
32761;BME280;19126;47.472;7.850;2022-09-13T00:55:34;96284.56;;;12.36;41.97
32761;BME280;19126;47.472;7.850;2022-09-13T00:58:08;96294.31;;;12.36;42.63
32761;BME280;19126;47.472;7.850;2022-09-13T01:00:37;96288.03;;;12.37;41.85
32761;BME280;19126;47.472;7.850;2022-09-13T01:03:07;96296.13;;;12.35;41.74
32761;BME280;19126;47.472;7.850;2022-09-13T01:05:39;96277.69;;;12.35;40.68
32761;BME280;19126;47.472;7.850;2022-09-13T01:08:08;96288.22;;;12.35;39.45
32761;BME280;19126;47.472;7.850;2022-09-13T01:10:50;96289.44;;;12.33;37.55
32761;BME280;19126;47.472;7.850;2022-09-13T01:13:20;96288.59;;;12.25;38.72
32761;BME280;19126;47.472;7.850;2022-09-13T01:15:48;96295.84;;;12.23;38.42
32761;BME280;19126;47.472;7.850;2022-09-13T01:18:16;96292.00;;;12.26;37.03
32761;BME280;19126;47.472;7.850;2022-09-13T01:21:07;96294.84;;;12.24;35.99
32761;BME280;19126;47.472;7.850;2022-09-13T01:27:34;96296.03;;;12.22;36.00
32761;BME280;19126;47.472;7.850;2022-09-13T01:30:17;96305.56;;;12.23;37.15
32761;BME280;19126;47.472;7.850;2022-09-13T01:33:02;96300.50;;;12.21;37.29
32761;BME280;19126;47.472;7.850;2022-09-13T01:35:50;96304.31;;;12.19;37.35
32761;BME280;19126;47.472;7.850;2022-09-13T01:38:45;96298.19;;;12.11;38.87
32761;BME280;19126;47.472;7.850;2022-09-13T01:44:22;96306.53;;;12.15;36.89
32761;BME280;19126;47.472;7.850;2022-09-13T01:47:02;96305.28;;;12.11;36.35
32761;BME280;19126;47.472;7.850;2022-09-13T01:49:42;96301.59;;;12.05;35.02
32761;BME280;19126;47.472;7.850;2022-09-13T01:52:20;96308.88;;;12.03;36.37
32761;BME280;19126;47.472;7.850;2022-09-13T01:54:57;96313.69;;;11.99;38.30
32761;BME280;19126;47.472;7.850;2022-09-13T01:57:34;96314.75;;;12.05;37.46
32761;BME280;19126;47.472;7.850;2022-09-13T02:00:07;96314.75;;;12.05;35.96
32761;BME280;19126;47.472;7.850;2022-09-13T02:02:39;96318.59;;;12.02;36.00
32761;BME280;19126;47.472;7.850;2022-09-13T02:05:13;96312.78;;;11.92;35.21
32761;BME280;19126;47.472;7.850;2022-09-13T02:07:45;96313.00;;;11.91;34.42
32761;BME280;19126;47.472;7.850;2022-09-13T02:10:21;96309.75;;;11.88;33.46
32761;BME280;19126;47.472;7.850;2022-09-13T02:12:52;96306.03;;;11.83;33.79
32761;BME280;19126;47.472;7.850;2022-09-13T02:15:25;96304.41;;;11.82;34.33
32761;BME280;19126;47.472;7.850;2022-09-13T02:17:57;96304.22;;;11.83;33.70
32761;BME280;19126;47.472;7.850;2022-09-13T02:20:32;96299.34;;;11.80;32.12
32761;BME280;19126;47.472;7.850;2022-09-13T02:23:03;96301.16;;;11.80;31.30
32761;BME280;19126;47.472;7.850;2022-09-13T02:25:35;96295.47;;;11.76;32.28
32761;BME280;19126;47.472;7.850;2022-09-13T02:28:08;96294.00;;;11.73;31.88
32761;BME280;19126;47.472;7.850;2022-09-13T02:30:40;96293.84;;;11.75;30.21
32761;BME280;19126;47.472;7.850;2022-09-13T02:33:15;96289.34;;;11.69;30.97
32761;BME280;19126;47.472;7.850;2022-09-13T02:35:50;96290.50;;;11.66;31.66
32761;BME280;19126;47.472;7.850;2022-09-13T02:38:23;96288.13;;;11.71;30.48
32761;BME280;19126;47.472;7.850;2022-09-13T02:40:58;96286.50;;;11.70;29.02
32761;BME280;19126;47.472;7.850;2022-09-13T02:43:31;96279.00;;;11.67;28.79
32761;BME280;19126;47.472;7.850;2022-09-13T02:46:15;96280.38;;;11.63;28.70
32761;BME280;19126;47.472;7.850;2022-09-13T02:48:56;96276.94;;;11.63;28.05
32761;BME280;19126;47.472;7.850;2022-09-13T02:51:30;96275.47;;;11.60;28.18
32761;BME280;19126;47.472;7.850;2022-09-13T02:54:10;96278.13;;;11.60;28.22
32761;BME280;19126;47.472;7.850;2022-09-13T02:56:50;96286.00;;;11.60;28.87
32761;BME280;19126;47.472;7.850;2022-09-13T02:59:21;96286.69;;;11.69;28.33
32761;BME280;19126;47.472;7.850;2022-09-13T03:01:55;96280.06;;;11.73;27.20
32761;BME280;19126;47.472;7.850;2022-09-13T03:04:26;96280.84;;;11.73;26.04
32761;BME280;19126;47.472;7.850;2022-09-13T03:06:53;96294.84;;;11.74;25.40
32761;BME280;19126;47.472;7.850;2022-09-13T03:09:21;96287.94;;;11.73;24.70
32761;BME280;19126;47.472;7.850;2022-09-13T03:12:05;96289.59;;;11.74;23.72
32761;BME280;19126;47.472;7.850;2022-09-13T03:14:45;96285.06;;;11.68;22.39
32761;BME280;19126;47.472;7.850;2022-09-13T03:17:29;96288.88;;;11.65;22.91
32761;BME280;19126;47.472;7.850;2022-09-13T03:20:15;96297.97;;;11.63;22.69
32761;BME280;19126;47.472;7.850;2022-09-13T03:23:09;96295.28;;;11.56;23.86
32761;BME280;19126;47.472;7.850;2022-09-13T03:26:12;96280.06;;;11.51;23.60
32761;BME280;19126;47.472;7.850;2022-09-13T03:28:52;96286.97;;;11.52;23.74
32761;BME280;19126;47.472;7.850;2022-09-13T03:31:30;96292.84;;;11.54;23.22
32761;BME280;19126;47.472;7.850;2022-09-13T03:34:06;96288.50;;;11.47;23.19
32761;BME280;19126;47.472;7.850;2022-09-13T03:36:42;96290.34;;;11.46;23.79
32761;BME280;19126;47.472;7.850;2022-09-13T03:39:19;96293.34;;;11.43;24.21
32761;BME280;19126;47.472;7.850;2022-09-13T03:41:54;96293.97;;;11.45;23.36
32761;BME280;19126;47.472;7.850;2022-09-13T03:44:24;96296.41;;;11.47;21.22
32761;BME280;19126;47.472;7.850;2022-09-13T03:46:56;96300.66;;;11.48;21.50
32761;BME280;19126;47.472;7.850;2022-09-13T03:49:32;96297.41;;;11.46;21.75
32761;BME280;19126;47.472;7.850;2022-09-13T03:52:04;96300.25;;;11.44;21.59
32761;BME280;19126;47.472;7.850;2022-09-13T03:54:35;96292.97;;;11.46;20.82
32761;BME280;19126;47.472;7.850;2022-09-13T03:57:08;96288.50;;;11.47;20.98
32761;BME280;19126;47.472;7.850;2022-09-13T03:59:36;96288.72;;;11.45;21.07
32761;BME280;19126;47.472;7.850;2022-09-13T04:02:04;96285.75;;;11.33;21.53
32761;BME280;19126;47.472;7.850;2022-09-13T04:04:34;96287.00;;;11.37;21.76
32761;BME280;19126;47.472;7.850;2022-09-13T04:07:03;96281.31;;;11.34;22.00
32761;BME280;19126;47.472;7.850;2022-09-13T04:09:31;96288.22;;;11.35;21.70
32761;BME280;19126;47.472;7.850;2022-09-13T04:11:58;96295.28;;;11.34;20.82
32761;BME280;19126;47.472;7.850;2022-09-13T04:14:25;96285.38;;;11.36;20.04
32761;BME280;19126;47.472;7.850;2022-09-13T04:16:53;96284.38;;;11.37;19.68
32761;BME280;19126;47.472;7.850;2022-09-13T04:19:21;96274.63;;;11.31;19.68
32761;BME280;19126;47.472;7.850;2022-09-13T04:21:49;96285.38;;;11.36;18.95
32761;BME280;19126;47.472;7.850;2022-09-13T04:24:18;96278.06;;;11.32;18.04
32761;BME280;19126;47.472;7.850;2022-09-13T04:26:49;96276.00;;;11.27;18.95
32761;BME280;19126;47.472;7.850;2022-09-13T04:29:18;96281.63;;;11.24;19.70
32761;BME280;19126;47.472;7.850;2022-09-13T04:31:46;96277.00;;;11.26;20.72
32761;BME280;19126;47.472;7.850;2022-09-13T04:34:14;96280.69;;;11.32;20.45
32761;BME280;19126;47.472;7.850;2022-09-13T04:36:43;96284.97;;;11.33;18.72
32761;BME280;19126;47.472;7.850;2022-09-13T04:39:11;96292.47;;;11.36;18.57
32761;BME280;19126;47.472;7.850;2022-09-13T04:41:40;96296.09;;;11.35;17.83
32761;BME280;19126;47.472;7.850;2022-09-13T04:44:09;96296.66;;;11.30;18.64
32761;BME280;19126;47.472;7.850;2022-09-13T04:46:37;96302.75;;;11.31;18.47
32761;BME280;19126;47.472;7.850;2022-09-13T04:49:04;96300.09;;;11.31;18.04
32761;BME280;19126;47.472;7.850;2022-09-13T04:51:31;96288.97;;;11.28;17.99
32761;BME280;19126;47.472;7.850;2022-09-13T04:53:59;96296.03;;;11.28;16.74
32761;BME280;19126;47.472;7.850;2022-09-13T04:56:26;96295.84;;;11.29;16.41
32761;BME280;19126;47.472;7.850;2022-09-13T04:58:56;96297.84;;;11.27;15.91
32761;BME280;19126;47.472;7.850;2022-09-13T05:01:23;96300.75;;;11.33;15.39
32761;BME280;19126;47.472;7.850;2022-09-13T05:03:51;96297.09;;;11.34;14.84
32761;BME280;19126;47.472;7.850;2022-09-13T05:06:19;96301.78;;;11.38;14.15
32761;BME280;19126;47.472;7.850;2022-09-13T05:08:50;96295.97;;;11.43;13.83
32761;BME280;19126;47.472;7.850;2022-09-13T05:11:20;96288.25;;;11.41;13.08
32761;BME280;19126;47.472;7.850;2022-09-13T05:13:49;96286.63;;;11.40;12.44
32761;BME280;19126;47.472;7.850;2022-09-13T05:16:23;96284.84;;;11.41;12.95
32761;BME280;19126;47.472;7.850;2022-09-13T05:18:51;96290.53;;;11.44;12.47
32761;BME280;19126;47.472;7.850;2022-09-13T05:21:19;96284.72;;;11.49;12.12
32761;BME280;19126;47.472;7.850;2022-09-13T05:23:48;96272.97;;;11.52;12.26
32761;BME280;19126;47.472;7.850;2022-09-13T05:26:17;96270.44;;;11.58;10.79
32761;BME280;19126;47.472;7.850;2022-09-13T05:28:44;96273.47;;;11.62;10.48
32761;BME280;19126;47.472;7.850;2022-09-13T05:31:15;96276.72;;;11.64;10.58
32761;BME280;19126;47.472;7.850;2022-09-13T05:33:46;96273.53;;;11.69;10.49
32761;BME280;19126;47.472;7.850;2022-09-13T05:36:14;96273.97;;;11.72;10.52
32761;BME280;19126;47.472;7.850;2022-09-13T05:38:41;96272.34;;;11.71;10.28
32761;BME280;19126;47.472;7.850;2022-09-13T05:41:09;96272.78;;;11.75;10.28
32761;BME280;19126;47.472;7.850;2022-09-13T05:43:36;96269.94;;;11.77;10.39
32761;BME280;19126;47.472;7.850;2022-09-13T05:46:05;96265.91;;;11.74;10.37
32761;BME280;19126;47.472;7.850;2022-09-13T05:48:34;96270.97;;;11.76;10.28
32761;BME280;19126;47.472;7.850;2022-09-13T05:51:07;96273.03;;;11.80;9.93
32761;BME280;19126;47.472;7.850;2022-09-13T05:53:35;96263.31;;;11.81;10.07
32761;BME280;19126;47.472;7.850;2022-09-13T05:56:05;96265.56;;;11.84;9.88
32761;BME280;19126;47.472;7.850;2022-09-13T05:58:32;96268.63;;;11.87;9.70
32761;BME280;19126;47.472;7.850;2022-09-13T06:01:00;96271.06;;;11.89;9.95
32761;BME280;19126;47.472;7.850;2022-09-13T06:03:27;96265.63;;;11.91;9.68
32761;BME280;19126;47.472;7.850;2022-09-13T06:05:55;96264.44;;;11.93;9.72
32761;BME280;19126;47.472;7.850;2022-09-13T06:08:30;96271.13;;;11.96;9.85
32761;BME280;19126;47.472;7.850;2022-09-13T06:11:12;96273.75;;;11.96;9.99
32761;BME280;19126;47.472;7.850;2022-09-13T06:13:40;96271.34;;;11.94;9.94
32761;BME280;19126;47.472;7.850;2022-09-13T06:16:10;96276.72;;;12.08;10.21
32761;BME280;19126;47.472;7.850;2022-09-13T06:18:38;96272.09;;;12.16;9.53
32761;BME280;19126;47.472;7.850;2022-09-13T06:21:07;96262.81;;;12.21;9.54
32761;BME280;19126;47.472;7.850;2022-09-13T06:23:37;96261.38;;;12.18;9.48
32761;BME280;19126;47.472;7.850;2022-09-13T06:26:07;96255.75;;;12.28;9.10
32761;BME280;19126;47.472;7.850;2022-09-13T06:28:35;96261.16;;;12.48;8.96
32761;BME280;19126;47.472;7.850;2022-09-13T06:31:08;96254.22;;;12.89;8.30
32761;BME280;19126;47.472;7.850;2022-09-13T06:33:37;96257.78;;;13.37;8.40
32761;BME280;19126;47.472;7.850;2022-09-13T06:36:07;96245.06;;;13.74;9.71
32761;BME280;19126;47.472;7.850;2022-09-13T06:38:37;96235.44;;;14.27;11.44
32761;BME280;19126;47.472;7.850;2022-09-13T06:41:08;96238.34;;;14.77;13.29
32761;BME280;19126;47.472;7.850;2022-09-13T06:43:36;96231.03;;;15.18;20.66
32761;BME280;19126;47.472;7.850;2022-09-13T06:46:05;96239.91;;;15.56;34.40
32761;BME280;19126;47.472;7.850;2022-09-13T06:48:34;96232.19;;;15.80;58.95
32761;BME280;19126;47.472;7.850;2022-09-13T06:51:04;96232.31;;;16.36;68.75
32761;BME280;19126;47.472;7.850;2022-09-13T06:53:33;96222.06;;;16.58;86.73
32761;BME280;19126;47.472;7.850;2022-09-13T06:56:05;96220.38;;;16.94;96.96
32761;BME280;19126;47.472;7.850;2022-09-13T06:58:34;96217.50;;;17.14;100.00
32761;BME280;19126;47.472;7.850;2022-09-13T07:01:12;96223.25;;;17.54;100.00
32761;BME280;19126;47.472;7.850;2022-09-13T07:03:42;96225.25;;;17.94;100.00
32761;BME280;19126;47.472;7.850;2022-09-13T07:06:12;96216.47;;;18.29;100.00
32761;BME280;19126;47.472;7.850;2022-09-13T07:08:40;96219.22;;;18.58;100.00
32761;BME280;19126;47.472;7.850;2022-09-13T07:11:10;96213.91;;;18.99;100.00
32761;BME280;19126;47.472;7.850;2022-09-13T07:13:38;96216.16;;;19.37;100.00
32761;BME280;19126;47.472;7.850;2022-09-13T07:16:08;96210.91;;;19.76;100.00
32761;BME280;19126;47.472;7.850;2022-09-13T07:18:36;96200.75;;;19.90;100.00
32761;BME280;19126;47.472;7.850;2022-09-13T07:21:06;96204.84;;;20.15;100.00
32761;BME280;19126;47.472;7.850;2022-09-13T07:23:36;96195.06;;;20.43;100.00
32761;BME280;19126;47.472;7.850;2022-09-13T07:26:08;96202.84;;;20.44;100.00
32761;BME280;19126;47.472;7.850;2022-09-13T07:28:38;96214.53;;;20.83;100.00
32761;BME280;19126;47.472;7.850;2022-09-13T07:31:07;96213.13;;;21.30;100.00
32761;BME280;19126;47.472;7.850;2022-09-13T07:33:35;96217.88;;;21.55;100.00
32761;BME280;19126;47.472;7.850;2022-09-13T07:36:03;96219.97;;;21.75;98.32
32761;BME280;19126;47.472;7.850;2022-09-13T07:38:35;96213.97;;;22.01;97.57
32761;BME280;19126;47.472;7.850;2022-09-13T07:41:05;96212.91;;;22.45;94.29
32761;BME280;19126;47.472;7.850;2022-09-13T07:43:35;96215.03;;;22.43;89.82
32761;BME280;19126;47.472;7.850;2022-09-13T07:46:06;96207.38;;;22.57;91.83
32761;BME280;19126;47.472;7.850;2022-09-13T07:48:36;96200.47;;;22.76;90.45
32761;BME280;19126;47.472;7.850;2022-09-13T07:51:06;96201.81;;;22.84;93.51
32761;BME280;19126;47.472;7.850;2022-09-13T07:53:35;96205.91;;;23.07;90.13
32761;BME280;19126;47.472;7.850;2022-09-13T07:56:05;96195.53;;;23.52;87.81
32761;BME280;19126;47.472;7.850;2022-09-13T07:58:36;96206.25;;;23.99;86.12
32761;BME280;19126;47.472;7.850;2022-09-13T08:01:06;96202.50;;;24.10;80.94
32761;BME280;19126;47.472;7.850;2022-09-13T08:03:35;96204.53;;;24.50;80.57
32761;BME280;19126;47.472;7.850;2022-09-13T08:06:03;96205.34;;;24.45;75.44
32761;BME280;19126;47.472;7.850;2022-09-13T08:08:31;96196.06;;;23.49;76.69
32761;BME280;19126;47.472;7.850;2022-09-13T08:11:00;96205.72;;;23.97;84.55
32761;BME280;19126;47.472;7.850;2022-09-13T08:13:28;96207.88;;;24.05;76.40
32761;BME280;19126;47.472;7.850;2022-09-13T08:16:01;96208.63;;;23.95;74.79
32761;BME280;19126;47.472;7.850;2022-09-13T08:18:28;96210.72;;;24.40;75.05
32761;BME280;19126;47.472;7.850;2022-09-13T08:20:56;96204.53;;;24.50;76.80
32761;BME280;19126;47.472;7.850;2022-09-13T08:23:24;96211.94;;;24.79;75.63
32761;BME280;19126;47.472;7.850;2022-09-13T08:25:52;96199.13;;;25.10;75.17
32761;BME280;19126;47.472;7.850;2022-09-13T08:28:21;96200.56;;;24.97;71.59
32761;BME280;19126;47.472;7.850;2022-09-13T08:30:48;96205.13;;;24.97;70.98
32761;BME280;19126;47.472;7.850;2022-09-13T08:33:17;96199.94;;;25.11;72.18
32761;BME280;19126;47.472;7.850;2022-09-13T08:35:50;96195.81;;;25.29;73.39
32761;BME280;19126;47.472;7.850;2022-09-13T08:38:18;96202.78;;;24.85;74.08
32761;BME280;19126;47.472;7.850;2022-09-13T08:40:52;96196.75;;;25.09;73.46
32761;BME280;19126;47.472;7.850;2022-09-13T08:43:31;96200.75;;;25.11;73.47
32761;BME280;19126;47.472;7.850;2022-09-13T08:46:04;96203.47;;;25.51;75.81
32761;BME280;19126;47.472;7.850;2022-09-13T08:48:38;96205.13;;;26.06;74.19
32761;BME280;19126;47.472;7.850;2022-09-13T08:51:26;96207.41;;;25.94;71.79
32761;BME280;19126;47.472;7.850;2022-09-13T08:53:55;96204.41;;;26.00;68.62
32761;BME280;19126;47.472;7.850;2022-09-13T08:56:28;96210.16;;;25.88;69.45
32761;BME280;19126;47.472;7.850;2022-09-13T08:59:17;96203.47;;;26.40;69.08
32761;BME280;19126;47.472;7.850;2022-09-13T09:01:55;96206.91;;;26.70;67.77
32761;BME280;19126;47.472;7.850;2022-09-13T09:04:36;96210.22;;;26.61;68.75
32761;BME280;19126;47.472;7.850;2022-09-13T09:07:10;96206.56;;;26.76;69.60
32761;BME280;19126;47.472;7.850;2022-09-13T09:09:43;96201.81;;;26.68;69.21
32761;BME280;19126;47.472;7.850;2022-09-13T09:12:24;96203.69;;;26.92;67.56
32761;BME280;19126;47.472;7.850;2022-09-13T09:15:02;96207.09;;;26.54;65.81
32761;BME280;19126;47.472;7.850;2022-09-13T09:17:43;96211.31;;;27.04;65.76
32761;BME280;19126;47.472;7.850;2022-09-13T09:20:24;96210.31;;;27.19;68.79
32761;BME280;19126;47.472;7.850;2022-09-13T09:22:54;96207.41;;;26.96;67.00
32761;BME280;19126;47.472;7.850;2022-09-13T09:25:23;96202.66;;;27.26;70.05
32761;BME280;19126;47.472;7.850;2022-09-13T09:27:51;96187.25;;;27.46;67.56
32761;BME280;19126;47.472;7.850;2022-09-13T09:30:19;96195.59;;;27.83;67.35
32761;BME280;19126;47.472;7.850;2022-09-13T09:32:58;96191.22;;;28.01;68.48
32761;BME280;19126;47.472;7.850;2022-09-13T09:35:45;96188.97;;;28.36;65.21
32761;BME280;19126;47.472;7.850;2022-09-13T09:38:37;96183.28;;;28.23;61.50
32761;BME280;19126;47.472;7.850;2022-09-13T09:41:13;96173.25;;;28.66;63.49
32761;BME280;19126;47.472;7.850;2022-09-13T09:43:48;96172.78;;;28.78;64.84
32761;BME280;19126;47.472;7.850;2022-09-13T09:46:25;96158.94;;;29.16;63.93
32761;BME280;19126;47.472;7.850;2022-09-13T09:48:56;96170.31;;;28.76;64.06
32761;BME280;19126;47.472;7.850;2022-09-13T09:51:28;96179.47;;;28.66;62.26
32761;BME280;19126;47.472;7.850;2022-09-13T09:54:01;96178.66;;;28.66;61.39
32761;BME280;19126;47.472;7.850;2022-09-13T09:56:31;96179.06;;;28.45;62.10
32761;BME280;19126;47.472;7.850;2022-09-13T09:58:59;96180.78;;;28.55;65.04
32761;BME280;19126;47.472;7.850;2022-09-13T10:01:30;96177.16;;;28.74;66.55
32761;BME280;19126;47.472;7.850;2022-09-13T10:04:05;96171.66;;;28.79;66.19
32761;BME280;19126;47.472;7.850;2022-09-13T10:06:38;96177.16;;;28.74;64.98
32761;BME280;19126;47.472;7.850;2022-09-13T10:09:13;96169.06;;;28.32;66.40
32761;BME280;19126;47.472;7.850;2022-09-13T10:11:45;96172.22;;;28.06;63.87
32761;BME280;19126;47.472;7.850;2022-09-13T10:14:34;96164.72;;;28.03;65.03
32761;BME280;19126;47.472;7.850;2022-09-13T10:17:15;96160.56;;;28.25;65.54
32761;BME280;19126;47.472;7.850;2022-09-13T10:19:55;96153.38;;;28.20;68.76
32761;BME280;19126;47.472;7.850;2022-09-13T10:22:26;96149.75;;;28.66;68.67
32761;BME280;19126;47.472;7.850;2022-09-13T10:24:54;96151.63;;;28.66;62.99
32761;BME280;19126;47.472;7.850;2022-09-13T10:27:26;96143.69;;;28.98;59.67
32761;BME280;19126;47.472;7.850;2022-09-13T10:29:58;96139.31;;;29.10;64.90
32761;BME280;19126;47.472;7.850;2022-09-13T10:32:27;96139.66;;;29.32;60.92
32761;BME280;19126;47.472;7.850;2022-09-13T10:35:01;96133.97;;;28.97;61.66
32761;BME280;19126;47.472;7.850;2022-09-13T10:37:31;96121.66;;;29.27;61.17
32761;BME280;19126;47.472;7.850;2022-09-13T10:40:05;96124.81;;;29.06;61.22
32761;BME280;19126;47.472;7.850;2022-09-13T10:42:35;96113.91;;;29.34;59.45
32761;BME280;19126;47.472;7.850;2022-09-13T10:45:04;96125.59;;;28.70;57.38
32761;BME280;19126;47.472;7.850;2022-09-13T10:47:37;96123.50;;;28.81;58.30
32761;BME280;19126;47.472;7.850;2022-09-13T10:50:19;96120.81;;;28.67;59.98
32761;BME280;19126;47.472;7.850;2022-09-13T10:52:50;96125.50;;;29.12;64.79
32761;BME280;19126;47.472;7.850;2022-09-13T10:55:33;96123.66;;;29.21;62.86
32761;BME280;19126;47.472;7.850;2022-09-13T10:58:19;96123.88;;;29.25;60.88
32761;BME280;19126;47.472;7.850;2022-09-13T11:01:30;96114.47;;;29.45;61.20
32761;BME280;19126;47.472;7.850;2022-09-13T11:08:14;96106.38;;;28.86;64.42
32761;BME280;19126;47.472;7.850;2022-09-13T11:10:54;96100.19;;;29.08;64.66
32761;BME280;19126;47.472;7.850;2022-09-13T11:13:38;96100.84;;;29.14;60.34
32761;BME280;19126;47.472;7.850;2022-09-13T11:16:22;96092.84;;;29.08;59.46
32761;BME280;19126;47.472;7.850;2022-09-13T11:19:35;96087.75;;;29.52;61.40
32761;BME280;19126;47.472;7.850;2022-09-13T11:22:29;96083.31;;;29.88;65.07
32761;BME280;19126;47.472;7.850;2022-09-13T11:25:25;96087.47;;;29.94;61.49
32761;BME280;19126;47.472;7.850;2022-09-13T11:28:04;96082.97;;;29.49;58.63
32761;BME280;19126;47.472;7.850;2022-09-13T11:30:41;96085.50;;;29.46;59.97
32761;BME280;19126;47.472;7.850;2022-09-13T11:33:25;96084.28;;;29.29;57.48
32761;BME280;19126;47.472;7.850;2022-09-13T11:36:26;96076.13;;;29.06;58.75
32761;BME280;19126;47.472;7.850;2022-09-13T11:39:05;96085.22;;;28.88;59.44
32761;BME280;19126;47.472;7.850;2022-09-13T11:41:42;96072.88;;;28.59;62.37
32761;BME280;19126;47.472;7.850;2022-09-13T11:44:37;96071.88;;;28.55;66.22
32761;BME280;19126;47.472;7.850;2022-09-13T11:47:22;96069.31;;;28.49;65.09
32761;BME280;19126;47.472;7.850;2022-09-13T11:50:08;96071.16;;;28.63;63.54
32761;BME280;19126;47.472;7.850;2022-09-13T11:52:52;96078.00;;;28.46;61.91
32761;BME280;19126;47.472;7.850;2022-09-13T11:55:26;96066.66;;;27.93;59.37
32761;BME280;19126;47.472;7.850;2022-09-13T11:58:01;96062.34;;;28.20;62.26
32761;BME280;19126;47.472;7.850;2022-09-13T12:00:33;96064.13;;;28.11;70.91
32761;BME280;19126;47.472;7.850;2022-09-13T12:03:15;96063.78;;;28.18;71.05
32761;BME280;19126;47.472;7.850;2022-09-13T12:05:49;96066.53;;;28.27;68.49
32761;BME280;19126;47.472;7.850;2022-09-13T12:08:21;96063.16;;;28.21;64.12
32761;BME280;19126;47.472;7.850;2022-09-13T12:10:54;96056.56;;;27.99;63.90
32761;BME280;19126;47.472;7.850;2022-09-13T12:13:27;96063.75;;;27.90;66.03
32761;BME280;19126;47.472;7.850;2022-09-13T12:15:59;96062.97;;;28.03;69.15
32761;BME280;19126;47.472;7.850;2022-09-13T12:18:31;96058.22;;;28.09;72.47
32761;BME280;19126;47.472;7.850;2022-09-13T12:21:06;96057.25;;;28.05;66.34
32761;BME280;19126;47.472;7.850;2022-09-13T12:23:40;96062.53;;;28.10;69.46
32761;BME280;19126;47.472;7.850;2022-09-13T12:26:12;96062.78;;;28.14;71.73
32761;BME280;19126;47.472;7.850;2022-09-13T12:28:48;96065.25;;;28.24;65.11
32761;BME280;19126;47.472;7.850;2022-09-13T12:31:21;96067.84;;;28.01;60.99
32761;BME280;19126;47.472;7.850;2022-09-13T12:33:49;96067.13;;;27.82;64.05
32761;BME280;19126;47.472;7.850;2022-09-13T12:36:44;96061.84;;;27.90;62.98
32761;BME280;19126;47.472;7.850;2022-09-13T12:39:58;96064.94;;;28.12;71.29
32761;BME280;19126;47.472;7.850;2022-09-13T12:43:04;96055.75;;;28.27;65.70
32761;BME280;19126;47.472;7.850;2022-09-13T12:46:25;96061.25;;;28.21;73.84
32761;BME280;19126;47.472;7.850;2022-09-13T12:49:32;96055.56;;;28.23;69.25
32761;BME280;19126;47.472;7.850;2022-09-13T12:52:30;96046.34;;;28.10;67.62
32761;BME280;19126;47.472;7.850;2022-09-13T12:55:54;96042.78;;;28.15;68.79
32761;BME280;19126;47.472;7.850;2022-09-13T13:01:24;96041.84;;;28.33;66.06
32761;BME280;19126;47.472;7.850;2022-09-13T13:03:55;96043.44;;;28.20;70.05
32761;BME280;19126;47.472;7.850;2022-09-13T13:06:27;96042.94;;;28.32;69.53
32761;BME280;19126;47.472;7.850;2022-09-13T13:08:57;96049.06;;;28.24;67.56
32761;BME280;19126;47.472;7.850;2022-09-13T13:11:27;96040.03;;;28.29;61.57
32761;BME280;19126;47.472;7.850;2022-09-13T13:13:58;96037.03;;;28.30;62.73
32761;BME280;19126;47.472;7.850;2022-09-13T13:16:31;96042.22;;;28.41;59.52
32761;BME280;19126;47.472;7.850;2022-09-13T13:18:59;96034.91;;;28.41;64.31
32761;BME280;19126;47.472;7.850;2022-09-13T13:21:36;96035.34;;;28.34;64.81
32761;BME280;19126;47.472;7.850;2022-09-13T13:24:47;96039.34;;;28.09;58.48
32761;BME280;19126;47.472;7.850;2022-09-13T13:27:40;96041.19;;;28.14;55.69
32761;BME280;19126;47.472;7.850;2022-09-13T13:30:51;96042.75;;;28.01;56.79
32761;BME280;19126;47.472;7.850;2022-09-13T13:33:26;96042.84;;;28.10;58.14
32761;BME280;19126;47.472;7.850;2022-09-13T13:35:54;96029.06;;;27.97;57.51
32761;BME280;19126;47.472;7.850;2022-09-13T13:38:41;96029.56;;;27.99;58.45
32761;BME280;19126;47.472;7.850;2022-09-13T13:41:38;96024.94;;;28.00;56.95
32761;BME280;19126;47.472;7.850;2022-09-13T13:51:15;96008.00;;;28.36;58.85
32761;BME280;19126;47.472;7.850;2022-09-13T13:53:47;95999.03;;;28.13;58.99
32761;BME280;19126;47.472;7.850;2022-09-13T13:56:28;95993.06;;;28.02;65.63
32761;BME280;19126;47.472;7.850;2022-09-13T13:59:05;95990.97;;;27.99;63.56